2VA5 weather

Rosegill Farm Airstrip
Urbanna, Virginia, United States

Public forecast

Using degrees Fahrenheit for public forecast. Weather courtesy of forecast.io.

Closest aviation weather report (METAR) to Rosegill Farm Airstrip

Closest report is Middle Peninsula Regional Airport, 11.6 nm (21.4 km) SW. Retrieved 2020/01/26 14:35 UTC (0 seconds ago):

KFYJ 261435Z AUTO 25005KT 10SM CLR 07/01 A2996 RMK AO1 T00670007

Closest aviation forecast (TAF) to Rosegill Farm Airstrip

Forecast is more than 12 hours old.

Closest forecast is Felker Army Air Field, 30.0 nm (55.5 km) S. Retrieved 2020/01/24 19:03 UTC (2 days ago):

TAF TAF KFAF 241900Z 2419/2601 11012KT 9999 BKN050 BKN120 QNH3008INS BECMG 2509/2510 16010G15KT 8000 -SHRA BKN008 BKN015 QNH3002INS BECMG 2513/2514 26012G18KT 9999 NSW BKN040 QNH2996INS TX13/2419Z TN08/2508Z LAST NO AMDS AFT 2504 NEXT 2711